Time;durP1;ratioP1;P1;durP2;ratioP2;P2;SDS_P1;SDS_P2;PMS_P1;PMS_P2;Temp;Humidity;BMP_temperature;BMP_pressure;BME280_temperature;BME280_humidity;BME280_pressure;Samples;Min_cycle;Max_cycle;Signal;HPM_P1;HPM_P2
2023/01/17 00:02:21;;;;;;;1.00;0.90;;;;;;;1.85;100.00;93317.56;5055533;28;20480;-73
2023/01/17 00:10:21;;;;;;;1.30;1.20;;;;;;;1.98;100.00;93336.41;5072241;28;20436;-73
2023/01/17 00:12:52;;;;;;;1.30;1.13;;;;;;;1.93;100.00;93340.06;5072750;28;20427;-73
2023/01/17 00:15:22;;;;;;;1.00;1.00;;;;;;;1.94;100.00;93338.22;5055185;28;20895;-73
2023/01/17 00:17:49;;;;;;;1.20;1.10;;;;;;;1.83;100.00;93332.03;5071800;28;21067;-73
2023/01/17 00:26:04;;;;;;;1.07;1.00;;;;;;;1.86;100.00;93352.19;5072768;28;20993;-73
2023/01/17 01:35:52;;;;;;;3.43;1.17;;;;;;;1.11;100.00;93330.66;5060352;28;20824;-72
2023/01/17 01:38:22;;;;;;;1.30;1.20;;;;;;;1.59;100.00;93398.16;5065663;28;20442;-72
2023/01/17 01:40:54;;;;;;;1.30;1.20;;;;;;;1.51;100.00;93394.66;5076842;28;20435;-72
2023/01/17 01:43:48;;;;;;;1.97;1.87;;;;;;;1.57;100.00;93406.31;5077371;28;20951;-72
2023/01/17 01:46:26;;;;;;;1.50;1.40;;;;;;;1.47;100.00;93393.84;5060355;28;20460;-72
2023/01/17 01:49:01;;;;;;;1.57;1.37;;;;;;;1.42;100.00;93394.09;5071835;28;20420;-72
2023/01/17 01:51:44;;;;;;;1.23;1.13;;;;;;;1.51;100.00;93422.56;5083085;28;20462;-72
2023/01/17 01:54:18;;;;;;;1.40;1.30;;;;;;;1.51;100.00;93428.50;5079023;28;20394;-72
2023/01/17 01:56:46;;;;;;;4.70;1.00;;;;;;;1.50;100.00;93436.66;5097361;28;20463;-73
2023/01/17 01:59:17;;;;;;;1.20;1.10;;;;;;;1.48;100.00;93437.00;5083871;28;20444;-72
2023/01/17 02:01:44;;;;;;;1.30;1.10;;;;;;;1.39;100.00;93418.97;5094493;28;20440;-72
2023/01/17 02:04:12;;;;;;;2.33;1.30;;;;;;;1.43;100.00;93427.59;5074929;28;20511;-72
2023/01/17 02:06:50;;;;;;;1.33;1.23;;;;;;;1.36;100.00;93431.91;5074898;28;20482;-72
2023/01/17 02:09:17;;;;;;;1.57;1.47;;;;;;;1.41;100.00;93437.59;5060182;28;20436;-72
2023/01/17 02:11:46;;;;;;;5.63;1.20;;;;;;;1.29;100.00;93423.94;5065510;28;20837;-72
2023/01/17 02:14:17;;;;;;;2.40;1.30;;;;;;;1.37;100.00;93438.63;5075575;28;20514;-72
2023/01/17 02:17:18;;;;;;;2.70;1.67;;;;;;;1.36;100.00;93444.91;5057584;28;20487;-72
2023/01/17 02:20:10;;;;;;;1.70;1.60;;;;;;;1.18;100.00;93414.03;5056134;28;20450;-72
2023/01/17 02:22:55;;;;;;;1.10;1.00;;;;;;;1.33;100.00;93445.56;5073832;28;20960;-72
2023/01/17 02:25:56;;;;;;;2.83;1.40;;;;;;;1.32;100.00;93451.88;5077652;28;20468;-72
2023/01/17 02:28:35;;;;;;;1.20;1.10;;;;;;;1.28;100.00;93453.66;5056217;28;20425;-73
2023/01/17 02:31:17;;;;;;;2.40;2.23;;;;;;;1.19;100.00;93438.97;5063100;28;20433;-72
2023/01/17 02:33:53;;;;;;;1.87;1.53;;;;;;;1.17;100.00;93448.94;5073047;28;20939;-72
2023/01/17 02:36:31;;;;;;;1.53;1.10;;;;;;;1.22;100.00;93471.38;5078079;28;20487;-72
2023/01/17 02:39:01;;;;;;;1.20;1.10;;;;;;;1.04;100.00;93438.97;5076347;28;20863;-72
2023/01/17 02:41:42;;;;;;;1.47;1.37;;;;;;;1.22;100.00;93462.81;5080624;28;20435;-72
2023/01/17 02:44:14;;;;;;;2.40;1.30;;;;;;;1.19;100.00;93451.97;5050858;28;20478;-72
2023/01/17 02:46:55;;;;;;;1.27;1.07;;;;;;;1.17;100.00;93461.19;5076890;28;20451;-72
2023/01/17 02:49:26;;;;;;;0.90;0.90;;;;;;;0.88;100.00;93420.78;5071740;28;20468;-72
2023/01/17 02:52:16;;;;;;;1.37;1.27;;;;;;;0.92;100.00;93420.88;5075653;28;20418;-73
2023/01/17 02:55:07;;;;;;;2.00;1.27;;;;;;;1.09;100.00;93449.91;5048945;28;20945;-72
2023/01/17 02:57:53;;;;;;;1.70;1.60;;;;;;;1.08;100.00;93466.59;5062033;28;20460;-72
2023/01/17 03:00:19;;;;;;;1.50;1.40;;;;;;;1.05;100.00;93443.84;5086918;28;20466;-72
2023/01/17 03:02:49;;;;;;;1.43;1.33;;;;;;;1.03;100.00;93453.06;5073455;28;20803;-72
2023/01/17 03:05:23;;;;;;;2.50;1.20;;;;;;;0.83;100.00;93432.19;5076506;28;20435;-72
2023/01/17 03:07:52;;;;;;;2.50;1.20;;;;;;;0.83;100.00;93445.22;5079923;28;20813;-72
2023/01/17 03:10:20;;;;;;;1.20;1.10;;;;;;;0.91;100.00;93453.91;5086173;28;20433;-72
2023/01/17 03:12:47;;;;;;;1.70;1.60;;;;;;;0.92;100.00;93442.41;5086528;28;21051;-72
2023/01/17 03:15:16;;;;;;;1.90;1.67;;;;;;;0.94;100.00;93461.06;5083238;28;20482;-72
2023/01/17 03:17:47;;;;;;;1.10;1.00;;;;;;;0.92;100.00;93452.81;5062085;28;20464;-72
2023/01/17 03:20:14;;;;;;;1.50;1.40;;;;;;;0.88;100.00;93465.75;5074332;28;20419;-72
2023/01/17 03:22:41;;;;;;;2.37;1.67;;;;;;;0.70;100.00;93443.00;5056216;28;20429;-72
2023/01/17 03:25:07;;;;;;;1.10;1.10;;;;;;;0.70;100.00;93446.38;5063014;28;20831;-72
2023/01/17 03:27:34;;;;;;;1.27;1.10;;;;;;;0.52;100.00;93419.94;5086280;28;20459;-72
2023/01/17 03:30:01;;;;;;;1.10;1.10;;;;;;;0.59;100.00;93443.50;5072757;28;20475;-72
2023/01/17 03:32:27;;;;;;;1.40;1.23;;;;;;;0.71;100.00;93468.69;5076295;28;20463;-72
2023/01/17 03:34:54;;;;;;;1.63;1.33;;;;;;;0.66;100.00;93471.50;5065593;28;20539;-72
2023/01/17 03:37:21;;;;;;;1.20;1.03;;;;;;;0.29;100.00;93411.19;5059708;28;20462;-72
2023/01/17 03:39:48;;;;;;;1.43;1.33;;;;;;;0.68;100.00;93473.78;5062542;28;20436;-72
2023/01/17 03:42:14;;;;;;;1.20;1.10;;;;;;;0.69;100.00;93470.84;5060547;28;20520;-72
2023/01/17 03:44:41;;;;;;;1.40;1.30;;;;;;;0.33;100.00;93409.44;5081809;28;20442;-72
2023/01/17 03:47:10;;;;;;;2.80;1.20;;;;;;;0.77;100.00;93474.38;5060218;28;20538;-72
2023/01/17 03:49:38;;;;;;;1.83;1.20;;;;;;;0.58;100.00;93447.19;5081299;28;20434;-72
2023/01/17 03:52:06;;;;;;;1.90;1.30;;;;;;;0.29;100.00;93406.75;5085788;28;20436;-72
2023/01/17 03:54:32;;;;;;;1.23;1.07;;;;;;;0.74;100.00;93470.59;5084256;28;20480;-72
2023/01/17 03:56:59;;;;;;;1.37;1.27;;;;;;;0.60;100.00;93462.44;5072952;28;20456;-72
2023/01/17 03:59:26;;;;;;;1.03;1.03;;;;;;;0.73;100.00;93476.13;5084284;28;20965;-72
2023/01/17 04:01:52;;;;;;;1.53;1.40;;;;;;;0.70;100.00;93487.97;5078787;28;20428;-72
2023/01/17 04:04:19;;;;;;;1.40;1.30;;;;;;;0.56;100.00;93475.38;5073377;28;20988;-72
2023/01/17 04:06:46;;;;;;;1.30;1.20;;;;;;;0.44;100.00;93461.69;5065520;28;20571;-72
2023/01/17 04:09:13;;;;;;;1.90;1.60;;;;;;;0.52;100.00;93481.53;5078319;28;20962;-72
2023/01/17 04:11:40;;;;;;;1.93;1.20;;;;;;;0.61;100.00;93494.41;5079804;28;20527;-72
2023/01/17 04:14:06;;;;;;;2.20;1.50;;;;;;;0.70;100.00;93513.19;5079086;28;20481;-72
2023/01/17 04:16:33;;;;;;;5.27;1.57;;;;;;;0.56;100.00;93488.34;5065548;28;20479;-71
2023/01/17 04:19:00;;;;;;;1.57;1.37;;;;;;;0.52;100.00;93477.09;5079945;28;20432;-72
2023/01/17 04:21:27;;;;;;;5.00;1.70;;;;;;;0.46;100.00;93467.28;5085397;28;20462;-72
2023/01/17 04:23:53;;;;;;;2.10;2.00;;;;;;;0.48;100.00;93484.06;5085458;28;20432;-72
2023/01/17 04:26:20;;;;;;;3.50;2.03;;;;;;;0.66;100.00;93514.94;5048318;28;20468;-72
2023/01/17 04:28:47;;;;;;;2.70;1.70;;;;;;;0.43;100.00;93481.72;5065916;28;20454;-72
2023/01/17 04:31:15;;;;;;;1.50;1.40;;;;;;;0.66;100.00;93517.53;5085050;28;20478;-72
2023/01/17 04:33:42;;;;;;;2.10;1.37;;;;;;;0.53;100.00;93494.19;5084997;28;20432;-72
2023/01/17 04:36:09;;;;;;;2.60;2.40;;;;;;;0.44;100.00;93490.25;5080838;28;20538;-72
2023/01/17 04:38:36;;;;;;;1.97;1.83;;;;;;;0.57;100.00;93509.91;5061546;28;20467;-72
2023/01/17 04:41:03;;;;;;;2.43;1.40;;;;;;;0.66;100.00;93533.13;5083762;28;20436;-72
2023/01/17 04:43:30;;;;;;;2.03;1.57;;;;;;;0.47;100.00;93507.78;5068116;28;20436;-72
2023/01/17 04:45:57;;;;;;;1.43;1.33;;;;;;;0.63;100.00;93533.81;5051229;28;20514;-72
2023/01/17 04:48:24;;;;;;;2.73;1.70;;;;;;;0.46;100.00;93525.22;5081642;28;20434;-72
2023/01/17 04:50:59;;;;;;;5.07;1.63;;;;;;;0.66;100.00;93548.72;5081367;28;20774;-72
2023/01/17 04:53:26;;;;;;;2.23;2.13;;;;;;;0.61;100.00;93546.38;5079170;28;20423;-72
2023/01/17 04:55:53;;;;;;;1.57;1.37;;;;;;;0.43;100.00;93527.72;5081303;28;20462;-72
2023/01/17 04:58:19;;;;;;;2.30;1.33;;;;;;;0.58;100.00;93553.75;5074716;28;20465;-72
2023/01/17 05:00:49;;;;;;;1.83;1.43;;;;;;;0.53;100.00;93546.19;5082055;28;20435;-72
2023/01/17 05:03:17;;;;;;;1.73;1.60;;;;;;;0.63;100.00;93572.78;5072378;28;20444;-74
2023/01/17 05:05:44;;;;;;;2.37;1.53;;;;;;;0.44;100.00;93542.22;5054097;28;20459;-73
2023/01/17 05:08:11;;;;;;;1.70;1.40;;;;;;;0.48;100.00;93563.84;5070901;28;20519;-75
2023/01/17 05:10:38;;;;;;;2.13;1.80;;;;;;;0.17;100.00;93515.16;5071397;28;20424;-74
2023/01/17 05:13:05;;;;;;;1.33;1.23;;;;;;;0.54;100.00;93580.75;5071718;28;20443;-74
2023/01/17 05:15:32;;;;;;;2.40;1.60;;;;;;;0.29;100.00;93530.69;5070737;28;20448;-74
2023/01/17 05:17:58;;;;;;;3.00;2.10;;;;;;;0.33;100.00;93554.91;5071886;28;20469;-74
2023/01/17 05:20:26;;;;;;;3.23;2.57;;;;;;;0.49;100.00;93580.97;5071939;28;20501;-74
2023/01/17 05:22:56;;;;;;;3.87;1.83;;;;;;;0.51;100.00;93592.53;5071911;28;20452;-74
2023/01/17 05:25:25;;;;;;;1.33;1.10;;;;;;;-0.08;100.00;93506.66;5070582;28;20997;-74
2023/01/17 05:27:52;;;;;;;2.60;1.60;;;;;;;0.44;100.00;93591.59;5070856;28;20424;-74
2023/01/17 05:30:19;;;;;;;1.43;1.33;;;;;;;0.12;100.00;93538.72;5050972;28;20943;-74
2023/01/17 05:32:51;;;;;;;3.33;2.17;;;;;;;0.48;100.00;93592.44;5070087;28;20830;-74
2023/01/17 05:35:20;;;;;;;1.50;1.40;;;;;;;0.32;100.00;93574.19;5071849;28;20434;-74
2023/01/17 05:37:48;;;;;;;2.03;1.63;;;;;;;0.44;100.00;93599.38;5083584;28;20464;-74
2023/01/17 05:40:16;;;;;;;1.93;1.83;;;;;;;0.29;100.00;93582.66;5071803;28;20509;-74
2023/01/17 05:42:47;;;;;;;3.63;1.80;;;;;;;0.18;100.00;93566.75;5070405;28;20438;-74
2023/01/17 05:45:15;;;;;;;4.10;2.77;;;;;;;0.26;100.00;93583.28;5052300;28;20520;-74
2023/01/17 05:47:47;;;;;;;2.67;2.47;;;;;;;0.42;100.00;93604.16;5070714;28;20416;-75
2023/01/17 05:50:17;;;;;;;1.50;1.40;;;;;;;0.12;100.00;93564.69;5070784;28;20455;-74
2023/01/17 05:52:52;;;;;;;1.93;1.77;;;;;;;0.45;100.00;93613.88;5050476;28;20987;-74
2023/01/17 05:55:19;;;;;;;2.97;1.90;;;;;;;0.35;100.00;93616.94;5068885;28;20464;-74
2023/01/17 05:57:46;;;;;;;2.27;1.63;;;;;;;0.20;100.00;93587.97;5054089;28;20472;-74
2023/01/17 06:00:14;;;;;;;2.63;2.43;;;;;;;0.16;100.00;93583.75;5050236;28;20465;-73
2023/01/17 06:02:41;;;;;;;2.43;2.23;;;;;;;0.38;100.00;93622.22;5062658;28;20459;-74
2023/01/17 06:05:08;;;;;;;3.63;2.50;;;;;;;0.13;100.00;93592.94;5053213;28;20890;-75
2023/01/17 06:07:34;;;;;;;3.70;2.70;;;;;;;0.16;100.00;93600.09;5069998;28;20851;-74
2023/01/17 06:10:01;;;;;;;2.40;2.20;;;;;;;0.21;100.00;93605.06;5071166;28;20523;-74
2023/01/17 06:12:28;;;;;;;3.37;2.37;;;;;;;0.17;100.00;93606.06;5071476;28;20538;-74
2023/01/17 06:14:54;;;;;;;3.00;1.90;;;;;;;0.08;100.00;93597.63;5070922;28;20599;-74
2023/01/17 06:17:21;;;;;;;2.80;2.60;;;;;;;0.07;100.00;93601.28;5070957;28;20509;-73
2023/01/17 06:19:48;;;;;;;4.70;2.20;;;;;;;0.19;100.00;93620.22;5072902;28;20464;-74
2023/01/17 06:22:14;;;;;;;2.97;2.67;;;;;;;-0.01;100.00;93585.50;5070895;28;20428;-75
2023/01/17 06:24:41;;;;;;;2.37;2.17;;;;;;;-0.12;100.00;93576.66;5078199;28;20470;-74
2023/01/17 06:27:09;;;;;;;8.33;4.07;;;;;;;0.08;100.00;93616.53;5061909;28;20461;-75
2023/01/17 06:29:36;;;;;;;2.80;2.00;;;;;;;-0.04;100.00;93603.56;5033087;28;20531;-75
2023/01/17 06:32:03;;;;;;;11.13;2.80;;;;;;;-0.04;100.00;93603.56;5033091;28;20527;-74
2023/01/17 06:34:30;;;;;;;2.80;2.60;;;;;;;0.05;100.00;93637.97;5049676;28;20472;-75
2023/01/17 06:36:57;;;;;;;4.43;2.40;;;;;;;-0.47;100.00;93573.75;5049380;28;20456;-74
2023/01/17 06:39:23;;;;;;;4.33;2.47;;;;;;;0.02;100.00;93641.22;5059012;28;20502;-74
2023/01/17 06:41:50;;;;;;;3.97;3.33;;;;;;;-0.06;100.00;93635.06;5069503;28;20434;-74
2023/01/17 06:44:16;;;;;;;6.37;2.60;;;;;;;-0.29;100.00;93608.00;5069675;28;21005;-74
2023/01/17 06:46:43;;;;;;;3.30;2.30;;;;;;;-0.32;100.00;93613.84;5086195;28;20451;-73
2023/01/17 06:49:10;;;;;;;4.20;3.20;;;;;;;-0.24;100.00;93627.81;5072328;28;20608;-74
2023/01/17 06:51:37;;;;;;;3.67;2.23;;;;;;;-0.31;100.00;93623.91;5066880;28;20443;-73
2023/01/17 06:54:03;;;;;;;1.93;1.83;;;;;;;-0.21;100.00;93651.28;5082337;28;20990;-73
2023/01/17 06:56:32;;;;;;;3.53;3.23;;;;;;;-0.41;100.00;93628.75;5069313;28;20460;-74
2023/01/17 06:58:58;;;;;;;2.73;2.50;;;;;;;-0.57;100.00;93620.09;5069377;28;20558;-73
2023/01/17 07:01:25;;;;;;;3.20;2.87;;;;;;;-0.44;100.00;93640.56;5081670;28;20462;-73
2023/01/17 07:03:52;;;;;;;3.00;2.60;;;;;;;-0.33;100.00;93661.66;5053962;28;20425;-73
2023/01/17 07:06:18;;;;;;;3.73;2.07;;;;;;;-0.51;100.00;93642.19;5071509;28;20463;-75
2023/01/17 07:08:46;;;;;;;3.23;2.90;;;;;;;-0.47;100.00;93635.25;5070290;28;20490;-76
2023/01/17 07:11:12;;;;;;;4.20;3.33;;;;;;;-0.46;100.00;93647.91;5074614;28;20428;-75
2023/01/17 07:13:40;;;;;;;4.80;4.40;;;;;;;-0.73;100.00;93610.34;5069668;28;20502;-75
2023/01/17 07:16:07;;;;;;;10.57;7.93;;;;;;;-0.37;100.00;93661.53;5071645;28;20460;-76
2023/01/17 07:18:34;;;;;;;3.77;3.50;;;;;;;-0.37;100.00;93660.78;5072298;28;20467;-75
2023/01/17 07:21:01;;;;;;;7.00;6.30;;;;;;;-0.38;100.00;93667.06;5069431;28;21004;-75
2023/01/17 07:23:27;;;;;;;4.30;3.97;;;;;;;-0.66;100.00;93633.94;5063499;28;20523;-75
2023/01/17 07:25:56;;;;;;;4.60;4.20;;;;;;;-0.32;100.00;93671.72;5084369;28;20460;-75
2023/01/17 07:28:24;;;;;;;17.07;12.57;;;;;;;-0.35;100.00;93658.63;5071052;28;20457;-75
2023/01/17 07:30:51;;;;;;;59.07;32.33;;;;;;;-0.60;100.00;93635.22;5069329;28;20526;-75
2023/01/17 07:33:18;;;;;;;7.60;6.13;;;;;;;-0.74;100.00;93608.09;5071703;28;20761;-75
2023/01/17 07:35:45;;;;;;;3.00;2.80;;;;;;;-0.26;100.00;93681.91;5072832;28;20538;-76
2023/01/17 07:38:17;;;;;;;4.47;4.07;;;;;;;-0.48;100.00;93644.88;5072989;28;20456;-76
2023/01/17 07:40:44;;;;;;;4.43;3.87;;;;;;;-0.61;100.00;93627.78;5053340;28;20800;-75
2023/01/17 07:43:16;;;;;;;3.30;2.40;;;;;;;-0.39;100.00;93665.56;5077928;28;20420;-74
2023/01/17 07:45:44;;;;;;;2.50;2.30;;;;;;;-0.15;100.00;93686.31;5099451;28;20432;-73
2023/01/17 07:48:11;;;;;;;2.57;2.37;;;;;;;-0.36;100.00;93664.91;5111967;28;20405;-73
2023/01/17 07:50:38;;;;;;;3.13;2.13;;;;;;;-0.27;100.00;93677.75;5065684;28;20520;-75
2023/01/17 07:53:05;;;;;;;4.40;2.73;;;;;;;-0.19;100.00;93700.28;5036015;28;20528;-75
2023/01/17 07:55:32;;;;;;;2.90;2.60;;;;;;;-0.22;100.00;93704.28;5053603;28;20536;-75
2023/01/17 07:57:58;;;;;;;2.63;2.40;;;;;;;-0.34;100.00;93697.22;5066448;28;21304;-75
2023/01/17 08:00:28;;;;;;;2.47;2.27;;;;;;;-0.45;100.00;93670.16;5072239;28;20509;-75
2023/01/17 08:02:59;;;;;;;3.50;3.10;;;;;;;-0.33;100.00;93675.38;5085666;28;20943;-75
2023/01/17 08:05:29;;;;;;;2.30;2.10;;;;;;;-0.26;100.00;93674.09;5044028;28;20517;-75
2023/01/17 08:07:56;;;;;;;3.60;2.87;;;;;;;-0.23;100.00;93665.66;5069810;28;20456;-75
2023/01/17 08:10:22;;;;;;;7.57;4.47;;;;;;;-0.34;100.00;93647.16;5057697;28;20447;-75
2023/01/17 08:12:50;;;;;;;13.17;8.70;;;;;;;-0.07;100.00;93682.13;5082089;28;20441;-75
2023/01/17 08:15:18;;;;;;;3.93;2.03;;;;;;;-0.42;100.00;93633.19;5052088;28;20781;-75
2023/01/17 08:17:46;;;;;;;10.60;5.77;;;;;;;-0.15;100.00;93678.53;5054875;28;20436;-75
2023/01/17 08:20:14;;;;;;;7.77;4.57;;;;;;;-0.25;100.00;93665.25;5082035;28;20514;-75
2023/01/17 08:22:41;;;;;;;9.10;6.30;;;;;;;-0.32;100.00;93656.13;5061830;28;20924;-75
2023/01/17 08:25:08;;;;;;;7.23;4.10;;;;;;;-0.23;100.00;93673.47;5073192;28;20439;-75
2023/01/17 08:27:35;;;;;;;11.10;8.90;;;;;;;-0.23;100.00;93666.44;5073170;28;20522;-75
2023/01/17 08:30:02;;;;;;;97.13;51.50;;;;;;;-0.46;100.00;93626.38;5082052;28;20465;-75
2023/01/17 08:32:29;;;;;;;41.77;26.73;;;;;;;-0.29;100.00;93665.09;5059592;28;20444;-75
2023/01/17 08:34:56;;;;;;;11.67;9.57;;;;;;;-0.64;100.00;93595.47;5064548;28;20467;-75
2023/01/17 08:37:23;;;;;;;30.73;27.53;;;;;;;-0.23;100.00;93663.06;5071697;28;20484;-75
2023/01/17 08:39:50;;;;;;;60.27;38.03;;;;;;;-0.40;100.00;93631.06;5071337;28;20467;-75
2023/01/17 08:42:16;;;;;;;57.80;28.60;;;;;;;-0.12;100.00;93671.97;5051369;28;20957;-75
2023/01/17 08:44:43;;;;;;;15.17;11.50;;;;;;;-0.24;100.00;93643.41;5072655;28;20470;-75
2023/01/17 08:47:10;;;;;;;9.80;9.00;;;;;;;-0.15;100.00;93660.34;5056414;28;20445;-75
2023/01/17 08:49:36;;;;;;;4.43;4.03;;;;;;;-0.01;100.00;93671.19;5063552;28;20482;-75
2023/01/17 08:52:04;;;;;;;5.50;4.30;;;;;;;0.06;100.00;93667.31;5071358;28;20511;-75
2023/01/17 08:54:30;;;;;;;4.03;3.63;;;;;;;-0.09;100.00;93634.97;5065756;28;20819;-75
2023/01/17 08:56:57;;;;;;;4.67;3.90;;;;;;;-0.13;100.00;93645.25;5074726;28;20449;-75
2023/01/17 08:59:24;;;;;;;4.13;3.73;;;;;;;-0.23;100.00;93644.91;5072357;28;20470;-75
2023/01/17 09:01:51;;;;;;;3.47;2.53;;;;;;;-0.24;100.00;93644.16;5075916;28;20442;-75
2023/01/17 09:04:18;;;;;;;6.53;5.27;;;;;;;-0.18;100.00;93644.69;5068144;28;20433;-75
2023/01/17 09:06:47;;;;;;;14.30;8.70;;;;;;;-0.17;100.00;93639.16;5069945;28;20463;-75
2023/01/17 09:09:16;;;;;;;27.37;17.80;;;;;;;0.22;100.00;93681.13;5070910;28;20433;-75
2023/01/17 09:11:42;;;;;;;4.67;3.60;;;;;;;0.08;100.00;93644.34;5071686;28;20426;-75
2023/01/17 09:14:11;;;;;;;6.27;4.67;;;;;;;0.30;100.00;93672.50;5067489;28;20436;-75
2023/01/17 09:16:38;;;;;;;5.87;5.30;;;;;;;0.39;100.00;93665.31;5058828;28;20452;-75
2023/01/17 09:19:04;;;;;;;6.10;3.63;;;;;;;0.27;100.00;93632.34;5070505;28;20518;-75
2023/01/17 09:21:31;;;;;;;5.30;3.77;;;;;;;0.36;100.00;93649.63;5072186;28;20868;-75
2023/01/17 09:23:58;;;;;;;4.87;4.37;;;;;;;0.46;100.00;93673.31;5071329;28;20438;-75
2023/01/17 09:26:28;;;;;;;3.73;3.20;;;;;;;0.10;100.00;93624.00;5059407;28;20863;-75
2023/01/17 09:28:54;;;;;;;8.73;4.90;;;;;;;0.56;100.00;93679.94;5050554;28;20433;-75
2023/01/17 09:31:22;;;;;;;3.87;2.50;;;;;;;0.46;100.00;93664.78;5058700;28;20443;-75
2023/01/17 09:33:50;;;;;;;11.97;6.87;;;;;;;0.62;100.00;93657.06;5072071;28;20472;-75
2023/01/17 09:36:18;;;;;;;6.33;4.70;;;;;;;0.72;100.00;93667.75;5073324;28;20445;-75
2023/01/17 09:38:45;;;;;;;2.50;2.30;;;;;;;0.80;100.00;93689.50;5052571;28;20544;-75
2023/01/17 09:41:40;;;;;;;7.00;3.73;;;;;;;0.75;100.00;93693.09;5071830;28;20512;-75
2023/01/17 09:44:36;;;;;;;6.10;3.60;;;;;;;0.82;100.00;93697.75;5057181;28;20416;-75
2023/01/17 09:47:17;;;;;;;3.27;2.87;;;;;;;0.54;100.00;93632.72;5071394;28;20496;-75
2023/01/17 09:49:45;;;;;;;14.10;7.97;;;;;;;1.01;100.00;93691.94;5070549;28;20452;-76
2023/01/17 09:52:19;;;;;;;2.70;2.50;;;;;;;1.07;100.00;93693.19;5078399;28;20791;-76
2023/01/17 09:54:47;;;;;;;9.27;5.10;;;;;;;0.99;100.00;93676.66;5061171;28;20444;-76
2023/01/17 09:57:26;;;;;;;12.47;7.30;;;;;;;1.17;100.00;93688.28;5050028;28;20498;-76
2023/01/17 10:00:08;;;;;;;4.13;3.73;;;;;;;1.17;100.00;93683.09;5068765;28;20999;-75
2023/01/17 10:02:50;;;;;;;2.63;2.20;;;;;;;1.26;100.00;93682.97;5078959;28;20486;-76
2023/01/17 10:05:44;;;;;;;6.37;3.70;;;;;;;1.21;100.00;93687.66;5066050;28;20531;-76
2023/01/17 10:08:29;;;;;;;4.93;3.30;;;;;;;1.28;100.00;93685.22;5070294;28;20494;-76
2023/01/17 10:11:24;;;;;;;11.47;8.60;;;;;;;1.41;100.00;93700.44;5071026;28;20527;-76
2023/01/17 10:14:12;;;;;;;46.43;27.53;;;;;;;1.18;100.00;93661.19;5051739;28;20467;-76
2023/01/17 10:16:56;;;;;;;22.20;12.40;;;;;;;1.47;100.00;93680.91;5057184;28;20900;-76
2023/01/17 10:19:51;;;;;;;15.50;11.70;;;;;;;1.22;100.00;93631.94;5056505;28;20455;-76
2023/01/17 10:22:37;;;;;;;16.30;8.10;;;;;;;1.43;100.00;93674.09;5062317;28;20431;-76
2023/01/17 10:25:18;;;;;;;3.77;3.47;;;;;;;1.48;100.00;93671.25;5061288;28;20475;-76
2023/01/17 10:27:56;;;;;;;10.30;8.90;;;;;;;1.27;100.00;93635.03;5077806;28;20440;-76
2023/01/17 10:30:32;;;;;;;10.57;9.30;;;;;;;1.56;100.00;93664.38;5049815;28;20429;-75
2023/01/17 10:33:02;;;;;;;5.43;5.00;;;;;;;0.96;100.00;93580.34;5057999;28;20472;-75
2023/01/17 10:35:35;;;;;;;4.17;2.73;;;;;;;1.40;100.00;93659.16;5080880;28;20455;-76
2023/01/17 10:38:09;;;;;;;3.30;2.90;;;;;;;1.50;100.00;93650.84;5049671;28;20473;-76
2023/01/17 10:40:43;;;;;;;2.93;2.30;;;;;;;1.33;100.00;93622.53;5076761;28;20976;-76
2023/01/17 10:43:19;;;;;;;3.00;2.70;;;;;;;1.30;100.00;93633.59;5050867;28;20425;-75
2023/01/17 10:45:54;;;;;;;5.33;2.87;;;;;;;1.15;100.00;93627.28;5056712;28;20444;-75
2023/01/17 10:48:40;;;;;;;3.30;2.40;;;;;;;1.22;100.00;93668.34;5069431;28;20501;-76
2023/01/17 10:51:20;;;;;;;3.10;2.80;;;;;;;1.13;100.00;93658.84;5052892;28;20434;-76
2023/01/17 10:54:03;;;;;;;3.30;2.80;;;;;;;1.11;100.00;93635.00;5069516;28;20530;-76
2023/01/17 10:56:29;;;;;;;2.40;1.77;;;;;;;0.63;100.00;93586.53;5082948;28;20444;-75
2023/01/17 10:59:17;;;;;;;3.40;2.57;;;;;;;1.15;100.00;93666.31;5049336;28;20470;-76
2023/01/17 11:01:44;;;;;;;6.13;3.90;;;;;;;0.89;100.00;93628.47;5066042;28;20539;-76
2023/01/17 11:04:16;;;;;;;4.10;2.93;;;;;;;1.01;100.00;93634.72;5069236;28;20471;-76
2023/01/17 11:06:46;;;;;;;5.20;2.60;;;;;;;1.16;100.00;93641.81;5082748;28;21021;-76
2023/01/17 11:09:45;;;;;;;7.13;4.10;;;;;;;1.42;100.00;93642.09;5073374;28;20427;-76
2023/01/17 11:12:27;;;;;;;2.37;2.17;;;;;;;1.46;100.00;93631.78;5073853;28;20424;-76
2023/01/17 11:15:02;;;;;;;2.37;2.23;;;;;;;1.44;100.00;93631.34;5073150;28;20981;-76
2023/01/17 11:17:30;;;;;;;3.30;2.57;;;;;;;1.38;100.00;93635.31;5073764;28;20848;-76
2023/01/17 11:20:13;;;;;;;3.53;2.63;;;;;;;1.28;100.00;93597.50;5068709;28;20983;-76
2023/01/17 11:22:44;;;;;;;2.80;2.47;;;;;;;1.33;100.00;93605.06;5071125;28;20432;-76
2023/01/17 11:25:23;;;;;;;4.27;3.97;;;;;;;1.45;100.00;93594.56;5063349;28;20456;-76
2023/01/17 11:28:00;;;;;;;4.57;1.90;;;;;;;1.57;100.00;93593.75;5069461;28;20444;-76
2023/01/17 11:30:28;;;;;;;1.73;1.60;;;;;;;1.74;100.00;93611.66;5085850;28;20476;-75
2023/01/17 11:32:59;;;;;;;1.73;1.63;;;;;;;1.71;100.00;93607.09;5067661;28;20428;-76
2023/01/17 11:35:43;;;;;;;6.10;3.20;;;;;;;1.59;100.00;93603.81;5064485;28;20514;-76
2023/01/17 11:38:21;;;;;;;2.37;2.20;;;;;;;1.56;100.00;93596.69;5084567;28;20463;-76
2023/01/17 11:40:49;;;;;;;4.60;2.33;;;;;;;1.09;100.00;93542.78;5073493;28;20991;-76
2023/01/17 11:43:20;;;;;;;3.60;2.10;;;;;;;0.87;100.00;93518.84;5072382;28;20431;-75
2023/01/17 11:46:14;;;;;;;4.87;2.40;;;;;;;1.13;100.00;93582.63;5062049;28;20486;-76
2023/01/17 11:48:45;;;;;;;2.40;2.20;;;;;;;1.00;100.00;93573.38;5079374;28;20454;-76
2023/01/17 11:51:33;;;;;;;6.20;4.00;;;;;;;1.47;100.00;93596.88;5082012;28;20478;-76
2023/01/17 11:54:25;;;;;;;5.60;3.40;;;;;;;1.36;100.00;93547.16;5061051;28;20420;-76
2023/01/17 11:56:57;;;;;;;1.87;1.77;;;;;;;1.60;100.00;93580.03;5081248;28;20494;-76
2023/01/17 11:59:36;;;;;;;2.30;2.10;;;;;;;1.81;100.00;93587.59;5052256;28;20561;-76
2023/01/17 12:02:42;;;;;;;2.00;1.70;;;;;;;1.80;100.00;93586.09;5058999;28;20431;-76
2023/01/17 12:05:26;;;;;;;1.97;1.60;;;;;;;1.87;100.00;93593.28;5055315;28;20467;-76
2023/01/17 12:07:53;;;;;;;1.47;1.37;;;;;;;1.87;100.00;93590.69;5072093;28;20452;-76
2023/01/17 12:10:38;;;;;;;1.60;1.50;;;;;;;1.80;100.00;93573.06;5063321;28;20897;-76
2023/01/17 12:17:02;;;;;;;2.70;2.50;;;;;;;2.13;100.00;93580.47;5061544;28;20474;-76
2023/01/17 12:19:33;;;;;;;4.53;1.73;;;;;;;2.05;100.00;93584.81;5081001;28;21010;-75
2023/01/17 12:22:32;;;;;;;2.87;2.07;;;;;;;1.73;100.00;93585.91;5064558;28;20928;-76
2023/01/17 12:25:13;;;;;;;1.63;1.53;;;;;;;1.83;100.00;93584.66;5073134;28;20958;-76
2023/01/17 12:27:56;;;;;;;2.50;1.67;;;;;;;1.89;100.00;93578.09;5076596;28;20435;-76
2023/01/17 12:30:36;;;;;;;2.60;1.73;;;;;;;2.04;100.00;93556.47;5091641;28;20506;-76
2023/01/17 12:33:21;;;;;;;2.00;1.80;;;;;;;2.08;100.00;93578.91;5053299;28;20511;-76
2023/01/17 12:36:02;;;;;;;1.50;1.40;;;;;;;2.08;100.00;93565.13;5070120;28;20849;-76
2023/01/17 12:38:35;;;;;;;1.70;1.50;;;;;;;2.27;100.00;93556.56;5068333;28;20526;-76
2023/01/17 12:41:06;;;;;;;1.77;1.60;;;;;;;1.85;100.00;93551.22;5071430;28;20507;-77
2023/01/17 12:43:36;;;;;;;2.10;2.00;;;;;;;2.00;100.00;93553.03;5073054;28;20438;-76
2023/01/17 12:46:11;;;;;;;2.23;1.60;;;;;;;1.93;100.00;93558.84;5073547;28;20465;-76
2023/01/17 12:48:38;;;;;;;2.30;2.10;;;;;;;1.31;100.00;93513.56;5034816;28;20452;-76
2023/01/17 12:51:17;;;;;;;2.47;1.63;;;;;;;1.40;100.00;93523.81;5062868;28;20515;-75
2023/01/17 12:54:08;;;;;;;2.20;1.70;;;;;;;1.98;100.00;93540.34;5071250;28;20423;-76
2023/01/17 12:56:41;;;;;;;2.00;1.90;;;;;;;2.30;100.00;93538.41;5067965;28;20551;-75
2023/01/17 12:59:14;;;;;;;2.00;1.80;;;;;;;2.44;100.00;93545.00;5064897;28;20442;-76
2023/01/17 13:01:56;;;;;;;7.87;2.20;;;;;;;2.65;100.00;93551.38;5054876;28;20540;-76
2023/01/17 13:04:36;;;;;;;1.70;1.60;;;;;;;2.45;100.00;93554.34;5058559;28;20431;-76
2023/01/17 13:07:38;;;;;;;5.53;2.13;;;;;;;1.75;100.00;93549.91;5063028;28;20448;-76
2023/01/17 13:10:36;;;;;;;3.00;1.83;;;;;;;1.59;100.00;93542.09;5071065;28;20486;-76
2023/01/17 13:13:24;;;;;;;2.33;1.80;;;;;;;1.48;100.00;93541.13;5072198;28;20836;-76
2023/01/17 13:15:59;;;;;;;2.13;1.93;;;;;;;1.49;100.00;93527.00;5071031;28;20453;-75